Time;durP1;ratioP1;P1;durP2;ratioP2;P2;SDS_P1;SDS_P2;PMS_P1;PMS_P2;Temp;Humidity;BMP_temperature;BMP_pressure;BME280_temperature;BME280_humidity;BME280_pressure;Samples;Min_cycle;Max_cycle;Signal;HPM_P1;HPM_P2
2023/07/05 00:01:51;;;;;;;1.90;1.00;;;22.20;63.60;21.50;96232.00;;;;4989716;28;20202;-80
2023/07/05 00:04:18;;;;;;;0.90;0.80;;;22.20;63.80;21.50;96227.00;;;;5002201;28;20666;-80
2023/07/05 00:06:46;;;;;;;0.73;0.73;;;22.10;63.70;21.40;96229.00;;;;4998363;28;20199;-80
2023/07/05 00:09:13;;;;;;;2.70;1.13;;;22.10;64.60;21.40;96218.00;;;;4990267;28;20225;-80
2023/07/05 00:11:40;;;;;;;1.10;0.93;;;22.10;63.90;21.40;96218.00;;;;4980865;28;20278;-80
2023/07/05 00:14:08;;;;;;;1.70;0.80;;;22.00;64.60;21.30;96211.00;;;;4980998;28;20258;-80
2023/07/05 00:16:35;;;;;;;0.60;0.60;;;22.00;64.00;21.30;96200.00;;;;4987120;28;20199;-80
2023/07/05 00:19:03;;;;;;;1.30;0.77;;;22.00;64.10;21.30;96198.00;;;;4980581;28;20246;-80
2023/07/05 00:21:31;;;;;;;0.50;0.50;;;21.90;64.10;21.30;96197.00;;;;4985423;28;20223;-80
2023/07/05 00:24:01;;;;;;;1.00;1.00;;;21.90;64.10;21.30;96189.00;;;;4978240;28;20207;-80
2023/07/05 00:26:28;;;;;;;2.30;0.80;;;21.90;64.10;21.20;96185.00;;;;4989787;28;20209;-80
2023/07/05 00:28:56;;;;;;;1.17;0.77;;;21.90;63.90;21.20;96190.00;;;;4987370;28;20585;-80
2023/07/05 00:31:23;;;;;;;0.97;0.87;;;21.90;63.90;21.20;96190.00;;;;4985259;28;20290;-80
2023/07/05 00:33:50;;;;;;;1.27;1.17;;;21.80;63.80;21.10;96192.00;;;;4980596;28;20199;-80
2023/07/05 00:36:19;;;;;;;1.13;1.00;;;21.80;63.70;21.10;96184.00;;;;4989917;28;20683;-80
2023/07/05 00:38:46;;;;;;;0.70;0.70;;;21.70;63.80;21.00;96186.00;;;;4980660;28;20384;-80
2023/07/05 00:41:13;;;;;;;0.77;0.70;;;21.70;63.80;21.00;96189.00;;;;4987758;28;20210;-80
2023/07/05 00:43:49;;;;;;;0.87;0.80;;;21.70;63.80;20.90;96188.00;;;;4984868;28;20196;-80
2023/07/05 00:46:21;;;;;;;1.00;0.90;;;21.60;64.00;20.90;96184.00;;;;4982568;28;20202;-80
2023/07/05 00:48:57;;;;;;;0.77;0.77;;;21.60;63.80;20.80;96182.00;;;;4978840;28;20222;-80
2023/07/05 00:51:38;;;;;;;0.83;0.67;;;21.50;64.20;20.80;96189.00;;;;4993668;28;20213;-80
2023/07/05 00:54:06;;;;;;;0.90;0.90;;;21.50;64.30;20.70;96182.00;;;;4984473;28;20680;-80
2023/07/05 00:56:40;;;;;;;0.73;0.73;;;21.40;64.10;20.70;96180.00;;;;4985345;28;20208;-80
2023/07/05 00:59:13;;;;;;;1.20;0.80;;;21.40;64.40;20.60;96178.00;;;;4990509;28;20225;-80
2023/07/05 01:01:42;;;;;;;1.10;1.00;;;21.30;64.60;20.60;96188.00;;;;4993763;28;20282;-80
2023/07/05 01:04:11;;;;;;;1.20;1.10;;;21.30;64.30;20.60;96181.00;;;;4988085;28;20575;-80
2023/07/05 01:06:40;;;;;;;0.73;0.73;;;21.30;64.40;20.50;96189.00;;;;4992621;28;20190;-80
2023/07/05 01:09:08;;;;;;;1.00;0.90;;;21.20;64.50;20.50;96194.00;;;;5002006;28;20226;-80
2023/07/05 01:11:51;;;;;;;1.07;0.97;;;21.20;64.50;20.50;96187.00;;;;4993659;28;20211;-80
2023/07/05 01:14:25;;;;;;;0.97;0.83;;;21.20;64.90;20.40;96192.00;;;;4992770;28;20237;-80
2023/07/05 01:17:08;;;;;;;1.07;0.97;;;21.20;64.60;20.40;96201.00;;;;4996353;28;20201;-80
2023/07/05 01:20:13;;;;;;;1.00;0.93;;;21.20;64.80;20.30;96192.00;;;;5000275;28;20202;-80
2023/07/05 01:23:25;;;;;;;1.33;0.80;;;21.10;65.00;20.30;96186.00;;;;4984869;28;20663;-80
2023/07/05 01:26:26;;;;;;;0.90;0.90;;;21.10;65.00;20.30;96200.00;;;;4992185;28;20750;-80
2023/07/05 01:29:48;;;;;;;0.70;0.70;;;21.00;64.80;20.20;96210.00;;;;5003775;28;20248;-80
2023/07/05 01:32:21;;;;;;;0.80;0.80;;;21.00;64.90;20.20;96211.00;;;;4979593;28;20645;-80
2023/07/05 01:34:57;;;;;;;1.67;0.93;;;21.00;64.50;20.10;96235.00;;;;4988323;28;20313;-80
2023/07/05 01:37:33;;;;;;;0.80;0.80;;;20.90;65.40;20.10;96289.00;;;;4976511;28;20501;-80
2023/07/05 01:40:00;;;;;;;0.80;0.70;;;20.90;65.10;20.10;96284.00;;;;4978270;28;20702;-79
2023/07/05 01:42:34;;;;;;;1.47;1.17;;;20.90;65.20;20.10;96249.00;;;;4980895;28;20203;-79
2023/07/05 01:45:02;;;;;;;1.97;0.80;;;20.90;65.80;20.10;96243.00;;;;4979466;28;20225;-79
2023/07/05 01:47:39;;;;;;;1.17;0.83;;;20.80;65.70;20.20;96248.00;;;;4987880;28;20222;-79
2023/07/05 01:50:21;;;;;;;0.80;0.80;;;20.90;66.10;20.20;96233.00;;;;4985627;28;20202;-79
2023/07/05 01:52:59;;;;;;;0.80;0.80;;;20.80;66.20;20.10;96231.00;;;;4976527;28;20202;-80
2023/07/05 01:55:36;;;;;;;1.43;1.03;;;20.80;66.20;20.20;96219.00;;;;4984000;28;20665;-78
2023/07/05 01:58:12;;;;;;;0.70;0.67;;;20.90;66.20;20.20;96215.00;;;;4978751;28;20320;-80
2023/07/05 02:00:42;;;;;;;1.07;0.80;;;20.90;66.30;20.20;96229.00;;;;4982934;28;20293;-79
2023/07/05 02:03:17;;;;;;;0.60;0.60;;;20.90;66.10;20.20;96245.00;;;;4993316;28;20201;-80
2023/07/05 02:05:47;;;;;;;1.00;0.70;;;20.90;66.40;20.20;96222.00;;;;4996108;28;20221;-80
2023/07/05 02:08:15;;;;;;;0.50;0.50;;;20.90;66.30;20.20;96212.00;;;;4999417;28;20226;-80
2023/07/05 02:10:42;;;;;;;1.27;1.17;;;20.80;66.20;20.20;96199.00;;;;4995357;28;20220;-80
2023/07/05 02:13:12;;;;;;;1.57;1.00;;;20.90;66.20;20.20;96187.00;;;;5000202;28;20290;-80
2023/07/05 02:15:39;;;;;;;1.10;0.90;;;20.80;66.20;20.20;96183.00;;;;4997505;28;20613;-80
2023/07/05 02:18:08;;;;;;;1.07;1.00;;;20.80;66.30;20.20;96180.00;;;;4996058;28;20260;-80
2023/07/05 02:20:38;;;;;;;1.00;1.00;;;20.90;66.30;20.20;96174.00;;;;4996426;28;20233;-80
2023/07/05 02:23:05;;;;;;;1.23;1.13;;;20.80;66.40;20.20;96186.00;;;;4998559;28;20267;-80
2023/07/05 02:25:32;;;;;;;0.97;0.90;;;20.90;66.40;20.20;96179.00;;;;4991606;28;20213;-80
2023/07/05 02:28:00;;;;;;;2.70;1.60;;;20.80;67.00;20.20;96174.00;;;;4998627;28;20287;-80
2023/07/05 02:30:27;;;;;;;1.70;1.60;;;20.80;66.20;20.20;96170.00;;;;5001943;28;20277;-79
2023/07/05 02:32:55;;;;;;;3.73;2.10;;;20.80;66.10;20.10;96167.00;;;;5006187;28;20205;-80
2023/07/05 02:35:23;;;;;;;2.33;1.83;;;20.80;66.00;20.10;96156.00;;;;5022398;28;20233;-81
2023/07/05 02:37:52;;;;;;;1.70;1.60;;;20.80;66.00;20.10;96154.00;;;;4992784;28;20238;-80
2023/07/05 02:40:21;;;;;;;1.53;1.33;;;20.80;66.20;20.10;96144.00;;;;5016155;28;20285;-80
2023/07/05 02:42:48;;;;;;;1.37;1.23;;;20.80;66.20;20.10;96134.00;;;;5000549;28;20198;-80
2023/07/05 02:45:15;;;;;;;1.40;1.30;;;20.80;66.10;20.10;96128.00;;;;5001926;28;20213;-80
2023/07/05 02:47:42;;;;;;;1.30;1.20;;;20.80;66.10;20.10;96126.00;;;;5003589;28;20308;-80
2023/07/05 02:50:14;;;;;;;1.20;1.10;;;20.70;66.00;20.00;96130.00;;;;4995134;28;20659;-80
2023/07/05 02:52:42;;;;;;;0.80;0.80;;;20.70;66.00;20.00;96130.00;;;;4992039;28;20206;-80
2023/07/05 02:55:11;;;;;;;0.97;0.87;;;20.70;66.60;20.00;96127.00;;;;4977374;28;20203;-80
2023/07/05 02:57:38;;;;;;;0.73;0.70;;;20.70;65.90;20.00;96122.00;;;;4987452;28;20227;-80
2023/07/05 03:00:08;;;;;;;1.10;0.83;;;20.70;65.80;19.90;96126.00;;;;4980229;28;20203;-80
2023/07/05 03:02:35;;;;;;;1.20;1.00;;;20.60;65.70;19.90;96127.00;;;;4987952;28;20212;-80
2023/07/05 03:05:08;;;;;;;1.50;1.40;;;20.60;65.70;19.80;96132.00;;;;4987972;28;20204;-80
2023/07/05 03:07:35;;;;;;;1.20;1.10;;;20.50;66.70;19.80;96134.00;;;;4995002;28;20229;-80
2023/07/05 03:10:02;;;;;;;1.40;1.17;;;20.50;65.70;19.80;96134.00;;;;4982163;28;20656;-80
2023/07/05 03:12:31;;;;;;;1.90;0.90;;;20.50;65.70;19.70;96132.00;;;;4991648;28;20281;-80
2023/07/05 03:14:59;;;;;;;0.93;0.90;;;20.50;65.90;19.70;96142.00;;;;4981706;28;20195;-80
2023/07/05 03:17:27;;;;;;;2.20;1.40;;;20.40;65.80;19.70;96139.00;;;;4993379;28;20224;-80
2023/07/05 03:19:57;;;;;;;1.33;1.23;;;20.40;65.80;19.60;96143.00;;;;4984952;28;20231;-80
2023/07/05 03:22:24;;;;;;;0.90;0.90;;;20.40;65.80;19.60;96139.00;;;;4987375;28;20222;-80
2023/07/05 03:24:52;;;;;;;0.80;0.80;;;20.30;65.80;19.60;96145.00;;;;4991277;28;20589;-80
2023/07/05 03:27:20;;;;;;;1.67;1.00;;;20.30;65.80;19.50;96143.00;;;;4982925;28;20230;-80
2023/07/05 03:29:52;;;;;;;2.07;1.40;;;20.30;65.80;19.50;96141.00;;;;4980756;28;20229;-80
2023/07/05 03:32:19;;;;;;;1.50;1.40;;;20.20;66.00;19.40;96142.00;;;;4986907;28;20202;-80
2023/07/05 03:34:47;;;;;;;2.07;1.73;;;20.20;66.00;19.40;96130.00;;;;4983685;28;20585;-80
2023/07/05 03:37:14;;;;;;;2.17;1.30;;;20.20;66.00;19.40;96128.00;;;;4986431;28;20281;-80
2023/07/05 03:39:42;;;;;;;1.53;1.43;;;20.20;66.00;19.40;96127.00;;;;4985211;28;20778;-80
2023/07/05 03:42:09;;;;;;;1.37;1.23;;;20.10;66.00;19.40;96128.00;;;;4978230;28;20201;-81
2023/07/05 03:44:37;;;;;;;1.40;1.30;;;20.10;66.10;19.30;96124.00;;;;4990058;28;20207;-80
2023/07/05 03:47:06;;;;;;;1.47;1.00;;;20.10;66.20;19.30;96125.00;;;;4991055;28;20207;-80
2023/07/05 03:49:33;;;;;;;1.30;1.00;;;20.10;66.50;19.30;96132.00;;;;4993765;28;20195;-80
2023/07/05 03:52:01;;;;;;;1.20;0.93;;;20.00;66.50;19.30;96137.00;;;;4987347;28;20609;-80
2023/07/05 03:54:29;;;;;;;2.67;1.23;;;20.00;66.60;19.30;96144.00;;;;4985660;28;20202;-80
2023/07/05 03:56:56;;;;;;;3.60;1.20;;;20.00;66.70;19.30;96143.00;;;;4986098;28;20211;-80
2023/07/05 03:59:24;;;;;;;0.83;0.70;;;20.00;66.60;19.30;96145.00;;;;4993891;28;20226;-80
2023/07/05 04:01:51;;;;;;;1.20;1.10;;;20.00;66.60;19.30;96144.00;;;;4988189;28;20292;-80
2023/07/05 04:04:20;;;;;;;1.77;1.30;;;20.00;66.70;19.30;96145.00;;;;4984509;28;20223;-80
2023/07/05 04:06:47;;;;;;;1.10;1.00;;;20.00;67.00;19.30;96141.00;;;;4987264;28;20273;-80
2023/07/05 04:09:14;;;;;;;2.20;1.07;;;20.00;67.00;19.30;96139.00;;;;4991079;28;20578;-80
2023/07/05 04:11:42;;;;;;;2.00;1.13;;;20.00;67.10;19.30;96130.00;;;;4982695;28;20695;-80
2023/07/05 04:14:10;;;;;;;1.17;1.07;;;20.00;67.20;19.30;96131.00;;;;4991028;28;20206;-80
2023/07/05 04:16:37;;;;;;;1.50;1.30;;;20.00;67.30;19.30;96144.00;;;;4978773;28;20205;-80
2023/07/05 04:19:05;;;;;;;1.00;1.00;;;20.00;67.40;19.30;96146.00;;;;4990956;28;20227;-82
2023/07/05 04:21:34;;;;;;;2.30;1.20;;;20.00;67.60;19.40;96142.00;;;;4995038;28;20290;-81
2023/07/05 04:24:01;;;;;;;1.30;0.97;;;20.10;67.70;19.40;96148.00;;;;4985704;28;20200;-81
2023/07/05 04:26:30;;;;;;;1.00;0.90;;;20.00;67.60;19.40;96141.00;;;;4984092;28;20645;-82
2023/07/05 04:28:57;;;;;;;1.60;1.10;;;20.10;67.80;19.40;96145.00;;;;4968530;28;20222;-81
2023/07/05 04:31:29;;;;;;;3.43;1.00;;;20.10;67.80;19.40;96146.00;;;;5003545;28;20558;-82
2023/07/05 04:33:58;;;;;;;1.73;1.07;;;20.10;67.90;19.40;96137.00;;;;5004482;28;20621;-80
2023/07/05 04:36:27;;;;;;;1.27;1.17;;;20.10;67.80;19.50;96130.00;;;;5003281;28;20203;-81
2023/07/05 04:38:58;;;;;;;1.23;1.10;;;20.20;67.90;19.50;96124.00;;;;4992285;28;20228;-81
2023/07/05 04:41:26;;;;;;;1.20;1.10;;;20.20;68.10;19.50;96132.00;;;;5002398;28;20212;-80
2023/07/05 04:43:54;;;;;;;2.13;1.20;;;20.20;68.00;19.60;96130.00;;;;5006554;28;20199;-80
2023/07/05 04:46:22;;;;;;;2.47;1.27;;;20.20;68.10;19.60;96142.00;;;;4992439;28;20256;-80
2023/07/05 04:48:49;;;;;;;1.53;1.30;;;20.20;68.20;19.60;96155.00;;;;4999635;28;20222;-80
2023/07/05 04:51:18;;;;;;;1.60;1.40;;;20.20;68.20;19.60;96151.00;;;;4997089;28;20657;-79
2023/07/05 04:53:46;;;;;;;1.73;1.47;;;20.30;68.30;19.60;96159.00;;;;4986726;28;20200;-80
2023/07/05 04:56:16;;;;;;;2.87;1.63;;;20.30;68.30;19.70;96161.00;;;;4989359;28;20285;-80
2023/07/05 04:58:44;;;;;;;3.13;1.37;;;20.30;68.30;19.70;96169.00;;;;4994681;28;20222;-79
2023/07/05 05:01:13;;;;;;;1.60;1.50;;;20.40;68.30;19.70;96165.00;;;;5005188;28;20248;-80
2023/07/05 05:03:41;;;;;;;1.40;1.30;;;20.40;68.40;19.70;96175.00;;;;4997452;28;20260;-80
2023/07/05 05:06:08;;;;;;;1.40;1.30;;;20.40;68.50;19.80;96179.00;;;;4980972;28;20221;-80
2023/07/05 05:08:36;;;;;;;1.20;1.10;;;20.40;68.60;19.80;96182.00;;;;5003681;28;20231;-80
2023/07/05 05:11:06;;;;;;;0.90;0.90;;;20.40;68.70;19.80;96177.00;;;;4995748;28;20230;-80
2023/07/05 05:13:36;;;;;;;1.33;1.10;;;20.50;69.00;19.90;96177.00;;;;4993166;28;20923;-80
2023/07/05 05:16:05;;;;;;;1.20;1.10;;;20.50;69.10;19.90;96183.00;;;;4981865;28;20568;-80
2023/07/05 05:18:35;;;;;;;1.40;1.30;;;20.50;69.00;20.00;96183.00;;;;4968505;28;20231;-80
2023/07/05 05:21:03;;;;;;;1.23;1.00;;;20.60;69.10;20.10;96190.00;;;;5000744;28;20689;-79
2023/07/05 05:23:31;;;;;;;1.00;1.00;;;20.60;69.20;20.20;96201.00;;;;4999983;28;20225;-81
2023/07/05 05:25:59;;;;;;;1.00;0.87;;;20.70;69.50;20.30;96219.00;;;;4978560;28;20356;-81
2023/07/05 05:28:27;;;;;;;1.57;1.37;;;20.80;69.80;20.30;96230.00;;;;4992193;28;20226;-81
2023/07/05 05:31:03;;;;;;;1.33;1.00;;;20.90;70.10;20.40;96268.00;;;;4989090;28;20648;-80
2023/07/05 05:33:31;;;;;;;2.03;1.10;;;20.90;70.40;20.50;96312.00;;;;4994196;28;20206;-79
2023/07/05 05:35:58;;;;;;;1.53;1.17;;;21.00;69.90;20.60;96326.00;;;;4998647;28;20651;-81
2023/07/05 05:38:26;;;;;;;1.43;1.30;;;21.10;69.80;20.70;96324.00;;;;4999224;28;20297;-81
2023/07/05 05:41:00;;;;;;;1.33;1.27;;;21.10;69.60;20.80;96338.00;;;;5001866;28;20721;-81
2023/07/05 05:43:28;;;;;;;1.20;1.00;;;21.20;69.50;20.80;96338.00;;;;5002515;28;20277;-81
2023/07/05 05:45:59;;;;;;;1.43;1.10;;;21.30;69.40;20.90;96344.00;;;;4998250;28;20199;-81
2023/07/05 05:48:27;;;;;;;0.93;0.90;;;21.40;69.40;21.00;96337.00;;;;5000224;28;20707;-81
2023/07/05 05:50:54;;;;;;;1.27;1.10;;;21.40;70.00;21.10;96335.00;;;;5003607;28;20674;-81
2023/07/05 05:53:22;;;;;;;2.10;1.13;;;21.50;69.20;21.10;96334.00;;;;5002592;28;20681;-81
2023/07/05 05:55:50;;;;;;;1.83;1.10;;;21.60;69.20;21.20;96333.00;;;;4996547;28;20717;-80
2023/07/05 05:58:17;;;;;;;2.07;0.80;;;21.70;69.10;21.30;96338.00;;;;5003606;28;20264;-80
2023/07/05 06:00:46;;;;;;;1.43;1.30;;;21.70;69.30;21.40;96322.00;;;;4999376;28;20229;-80
2023/07/05 06:03:15;;;;;;;1.33;1.10;;;21.80;69.60;21.50;96326.00;;;;4997327;28;20198;-81
2023/07/05 06:05:43;;;;;;;1.47;1.20;;;21.90;70.00;21.60;96316.00;;;;4999003;28;20293;-80
2023/07/05 06:08:10;;;;;;;1.93;0.93;;;22.00;69.90;21.60;96325.00;;;;4997199;28;20602;-81
2023/07/05 06:10:37;;;;;;;0.87;0.80;;;22.10;69.90;21.70;96329.00;;;;4996708;28;20651;-81
2023/07/05 06:13:06;;;;;;;1.63;0.83;;;22.10;69.50;21.70;96323.00;;;;4989923;28;20217;-80
2023/07/05 06:15:34;;;;;;;0.90;0.70;;;22.20;69.40;21.80;96309.00;;;;4994553;28;20203;-81
2023/07/05 06:18:01;;;;;;;1.67;0.70;;;22.30;69.10;21.80;96316.00;;;;4996864;28;20269;-80
2023/07/05 06:20:33;;;;;;;0.70;0.70;;;22.30;68.80;21.90;96319.00;;;;4993837;28;20303;-81
2023/07/05 06:23:03;;;;;;;0.70;0.60;;;22.30;68.90;21.90;96314.00;;;;4996540;28;20261;-81
2023/07/05 06:25:34;;;;;;;1.00;0.90;;;22.40;68.40;22.00;96314.00;;;;4990117;28;20198;-81
2023/07/05 06:28:02;;;;;;;0.50;0.50;;;22.40;68.00;22.00;96325.00;;;;4987614;28;20231;-81
2023/07/05 06:30:29;;;;;;;0.80;0.60;;;22.50;67.70;22.00;96327.00;;;;4991019;28;20206;-81
2023/07/05 06:32:56;;;;;;;0.40;0.30;;;22.50;67.20;22.00;96322.00;;;;4987099;28;20285;-81
2023/07/05 06:35:24;;;;;;;0.73;0.33;;;22.50;67.10;22.00;96309.00;;;;4994673;28;20207;-81
2023/07/05 06:37:53;;;;;;;0.90;0.40;;;22.50;67.80;22.00;96305.00;;;;4990787;28;20297;-81
2023/07/05 06:40:20;;;;;;;0.37;0.37;;;22.50;67.00;21.90;96314.00;;;;4994325;28;20223;-82
2023/07/05 06:42:47;;;;;;;0.87;0.57;;;22.50;66.80;21.90;96304.00;;;;4988708;28;20286;-81
2023/07/05 06:45:15;;;;;;;0.80;0.63;;;22.50;67.00;21.80;96300.00;;;;4993592;28;20305;-82
2023/07/05 06:47:45;;;;;;;0.57;0.40;;;22.50;67.10;21.80;96303.00;;;;4980189;28;20219;-81
2023/07/05 06:50:15;;;;;;;0.60;0.40;;;22.40;67.30;21.70;96298.00;;;;4985427;28;20207;-83
2023/07/05 06:52:43;;;;;;;0.97;0.80;;;22.40;68.00;21.70;96306.00;;;;4984155;28;20206;-81
2023/07/05 06:55:12;;;;;;;0.60;0.40;;;22.40;68.20;21.70;96297.00;;;;5000226;28;20266;-81
2023/07/05 06:57:40;;;;;;;0.37;0.30;;;22.30;68.50;21.60;96289.00;;;;4992503;28;20279;-81
2023/07/05 07:00:10;;;;;;;0.57;0.40;;;22.30;68.50;21.60;96288.00;;;;4997494;28;20281;-82
2023/07/05 07:02:37;;;;;;;1.70;0.60;;;22.30;68.80;21.60;96307.00;;;;4998827;28;20210;-82
2023/07/05 07:05:05;;;;;;;0.70;0.50;;;22.20;69.00;21.50;96311.00;;;;5002465;28;20202;-82
2023/07/05 07:07:33;;;;;;;0.63;0.33;;;22.20;69.20;21.50;96327.00;;;;5010879;28;20261;-81
2023/07/05 07:10:03;;;;;;;0.43;0.30;;;22.20;69.40;21.50;96343.00;;;;4996355;28;20202;-81
2023/07/05 07:12:32;;;;;;;0.90;0.60;;;22.20;69.60;21.50;96339.00;;;;4998668;28;20202;-82
2023/07/05 07:14:59;;;;;;;0.40;0.40;;;22.20;69.20;21.50;96338.00;;;;5001904;28;20646;-82
2023/07/05 07:17:26;;;;;;;0.60;0.60;;;22.10;69.10;21.50;96331.00;;;;4999917;28;20223;-80
2023/07/05 07:19:54;;;;;;;0.50;0.50;;;22.10;69.40;21.50;96337.00;;;;4992793;28;20311;-81
2023/07/05 07:22:22;;;;;;;0.73;0.73;;;22.10;69.80;21.50;96342.00;;;;4998753;28;20285;-82
2023/07/05 07:24:51;;;;;;;0.50;0.40;;;22.10;70.10;21.50;96332.00;;;;4994946;28;20195;-81
2023/07/05 07:27:19;;;;;;;0.40;0.40;;;22.20;70.40;21.50;96336.00;;;;5002985;28;20227;-80
2023/07/05 07:29:48;;;;;;;0.83;0.43;;;22.20;70.30;21.50;96350.00;;;;4999877;28;20199;-80
2023/07/05 07:32:16;;;;;;;0.60;0.60;;;22.20;70.60;21.60;96351.00;;;;5000071;28;20222;-80
2023/07/05 07:34:43;;;;;;;0.53;0.50;;;22.20;70.70;21.60;96359.00;;;;5000386;28;20205;-80
2023/07/05 07:37:11;;;;;;;1.47;0.80;;;22.20;70.80;21.60;96360.00;;;;4993876;28;20332;-80
2023/07/05 07:39:39;;;;;;;1.30;0.60;;;22.20;70.70;21.60;96359.00;;;;4992443;28;20293;-81
2023/07/05 07:42:07;;;;;;;2.90;0.80;;;22.30;70.70;21.70;96358.00;;;;5004176;28;20199;-81
2023/07/05 07:44:34;;;;;;;2.30;0.90;;;22.30;70.80;21.70;96362.00;;;;5002312;28;20286;-81
2023/07/05 07:47:06;;;;;;;0.50;0.50;;;22.30;70.80;21.80;96364.00;;;;4994900;28;20206;-81
2023/07/05 07:49:37;;;;;;;0.73;0.70;;;22.30;71.20;21.80;96366.00;;;;4994753;28;20194;-81
2023/07/05 07:52:07;;;;;;;1.70;0.70;;;22.40;71.00;21.90;96365.00;;;;4995917;28;20679;-81
2023/07/05 07:54:34;;;;;;;1.87;0.73;;;22.40;71.10;21.90;96347.00;;;;4990409;28;20234;-80
2023/07/05 07:57:02;;;;;;;2.53;1.03;;;22.50;71.20;22.00;96355.00;;;;4993378;28;20667;-81
2023/07/05 07:59:29;;;;;;;1.63;0.93;;;22.50;71.50;22.10;96352.00;;;;4996425;28;20573;-81
2023/07/05 08:01:56;;;;;;;1.67;0.83;;;22.50;71.50;22.20;96351.00;;;;4999456;28;20210;-81
2023/07/05 08:04:27;;;;;;;1.30;0.80;;;22.60;71.40;22.20;96349.00;;;;4995134;28;20698;-81
2023/07/05 08:06:54;;;;;;;1.00;0.80;;;22.70;71.60;22.30;96347.00;;;;4993478;28;20200;-81
2023/07/05 08:09:25;;;;;;;1.20;1.10;;;22.70;71.60;22.40;96347.00;;;;4993605;28;20202;-80
2023/07/05 08:11:53;;;;;;;1.10;1.00;;;22.80;71.80;22.50;96338.00;;;;4993290;28;20199;-81
2023/07/05 08:14:20;;;;;;;1.43;0.80;;;22.90;71.70;22.60;96337.00;;;;4992272;28;20200;-81
2023/07/05 08:16:48;;;;;;;0.93;0.93;;;23.00;71.80;22.70;96338.00;;;;4994901;28;20290;-81
2023/07/05 08:19:17;;;;;;;1.40;0.90;;;23.10;71.50;22.80;96324.00;;;;5000066;28;20570;-81
2023/07/05 08:21:46;;;;;;;0.77;0.77;;;23.20;71.60;22.90;96321.00;;;;4993311;28;20289;-80
2023/07/05 08:24:16;;;;;;;0.83;0.77;;;23.30;72.10;23.10;96312.00;;;;4994027;28;20673;-80
2023/07/05 08:26:44;;;;;;;1.10;0.77;;;23.40;72.60;23.20;96311.00;;;;4986366;28;20202;-81
2023/07/05 08:29:12;;;;;;;1.43;1.00;;;23.50;72.30;23.40;96311.00;;;;4993648;28;20222;-81
2023/07/05 08:31:41;;;;;;;1.20;1.10;;;23.60;72.20;23.50;96317.00;;;;4993266;28;20288;-81
2023/07/05 08:34:10;;;;;;;1.77;0.90;;;23.80;72.60;23.60;96325.00;;;;4994268;28;20213;-80
2023/07/05 08:36:40;;;;;;;1.13;0.80;;;23.90;72.30;23.70;96316.00;;;;4984822;28;20198;-80
2023/07/05 08:39:12;;;;;;;0.83;0.83;;;24.00;71.30;23.80;96310.00;;;;4988949;28;20315;-81
2023/07/05 08:42:17;;;;;;;0.93;0.90;;;24.10;70.60;23.90;96324.00;;;;4993849;28;20231;-81
2023/07/05 08:44:57;;;;;;;2.03;1.00;;;24.20;70.50;24.00;96325.00;;;;4969626;28;20209;-82
2023/07/05 08:47:33;;;;;;;1.67;1.00;;;24.30;70.40;24.00;96322.00;;;;4987979;28;20308;-81
2023/07/05 08:50:19;;;;;;;1.57;1.20;;;24.40;70.80;24.10;96328.00;;;;4980824;28;20213;-81
2023/07/05 08:52:49;;;;;;;1.77;1.10;;;24.50;70.30;24.20;96330.00;;;;4995679;28;20285;-83
2023/07/05 08:55:26;;;;;;;1.87;1.07;;;24.60;69.40;24.20;96317.00;;;;4986947;28;20205;-81
2023/07/05 08:57:57;;;;;;;1.10;1.00;;;24.60;69.40;24.30;96311.00;;;;4986860;28;20237;-80
2023/07/05 09:00:32;;;;;;;1.30;1.20;;;24.60;69.70;24.30;96312.00;;;;4987190;28;20232;-81
2023/07/05 09:03:00;;;;;;;1.10;0.97;;;24.70;69.60;24.40;96313.00;;;;4988391;28;20638;-81
2023/07/05 09:05:38;;;;;;;6.43;1.73;;;24.70;69.10;24.40;96316.00;;;;4994968;28;20651;-81
2023/07/05 09:08:21;;;;;;;1.20;1.10;;;24.80;68.60;24.40;96316.00;;;;4987904;28;20311;-81
2023/07/05 09:10:55;;;;;;;1.57;1.33;;;24.80;68.20;24.50;96314.00;;;;4986405;28;20289;-80
2023/07/05 09:13:35;;;;;;;2.37;1.20;;;24.80;67.90;24.50;96309.00;;;;4979435;28;20195;-80
2023/07/05 09:16:15;;;;;;;1.10;1.00;;;24.90;67.80;24.60;96309.00;;;;4982515;28;20202;-81
2023/07/05 09:19:01;;;;;;;1.87;1.23;;;24.90;68.30;24.70;96308.00;;;;4982443;28;20222;-80
2023/07/05 09:21:37;;;;;;;1.10;1.00;;;25.00;68.40;24.80;96301.00;;;;4981699;28;20226;-80
2023/07/05 09:24:17;;;;;;;1.50;1.40;;;25.10;68.50;24.90;96295.00;;;;4979382;28;20198;-80
2023/07/05 09:26:53;;;;;;;1.47;1.23;;;25.20;68.20;25.10;96302.00;;;;4985225;28;20209;-80
2023/07/05 09:29:32;;;;;;;1.60;0.97;;;25.30;66.90;25.20;96299.00;;;;4992823;28;20202;-80
2023/07/05 09:32:06;;;;;;;1.37;1.20;;;25.50;67.70;25.40;96309.00;;;;4986069;28;20214;-80
2023/07/05 09:34:40;;;;;;;1.23;1.13;;;25.60;66.40;25.50;96298.00;;;;4992381;28;20657;-80
2023/07/05 09:37:19;;;;;;;5.57;1.50;;;25.80;66.20;25.60;96311.00;;;;4988930;28;20293;-80
2023/07/05 09:40:12;;;;;;;1.67;1.40;;;25.90;66.10;25.70;96313.00;;;;4994592;28;20285;-80
2023/07/05 09:42:49;;;;;;;1.40;1.30;;;26.00;63.50;25.70;96313.00;;;;4995176;28;20245;-80
2023/07/05 09:45:19;;;;;;;1.43;1.33;;;26.00;63.90;25.80;96305.00;;;;4988566;28;20735;-80
2023/07/05 09:47:51;;;;;;;1.23;1.13;;;26.10;63.60;25.90;96315.00;;;;4986161;28;20229;-81
2023/07/05 09:50:22;;;;;;;1.20;1.10;;;26.20;63.40;25.90;96310.00;;;;4995081;28;20233;-79
2023/07/05 09:52:58;;;;;;;1.20;1.10;;;26.30;63.20;26.00;96308.00;;;;4987456;28;20282;-80
2023/07/05 09:55:26;;;;;;;1.37;1.27;;;26.30;63.20;26.10;96319.00;;;;4986578;28;20228;-80
2023/07/05 09:57:55;;;;;;;1.53;1.20;;;26.40;62.80;26.20;96325.00;;;;4978507;28;20245;-81
2023/07/05 10:00:27;;;;;;;1.43;1.33;;;26.50;63.10;26.30;96319.00;;;;4998329;28;20282;-80
2023/07/05 10:03:05;;;;;;;1.40;1.30;;;26.60;62.10;26.40;96320.00;;;;4995207;28;20222;-80
2023/07/05 10:05:32;;;;;;;1.40;1.30;;;26.80;62.40;26.60;96316.00;;;;5001404;28;20735;-81
2023/07/05 10:08:03;;;;;;;2.22;1.35;;;27.00;62.70;26.80;96311.00;;;;4995166;28;20250;-81
2023/07/05 10:10:36;;;;;;;1.30;1.20;;;27.20;62.70;27.00;96315.00;;;;4980894;28;20218;-79
2023/07/05 10:13:15;;;;;;;1.30;1.20;;;27.50;61.30;27.30;96308.00;;;;4985954;28;20261;-79
2023/07/05 10:15:44;;;;;;;1.05;1.05;;;27.80;61.30;27.50;96310.00;;;;4977199;28;20690;-79
2023/07/05 10:18:27;;;;;;;1.70;1.40;;;28.20;61.40;27.80;96315.00;;;;4983238;28;20247;-80
2023/07/05 10:20:57;;;;;;;1.33;1.23;;;28.50;58.90;28.00;96315.00;;;;4976848;28;20223;-80
2023/07/05 10:23:28;;;;;;;1.42;1.13;;;28.80;59.20;28.20;96313.00;;;;4984620;28;20211;-79
2023/07/05 10:26:00;;;;;;;1.10;1.10;;;29.00;58.90;28.40;96317.00;;;;4973293;28;20634;-79
2023/07/05 10:28:32;;;;;;;1.30;1.20;;;29.20;58.50;28.50;96312.00;;;;4988909;28;20302;-80
2023/07/05 10:31:03;;;;;;;1.40;1.30;;;29.30;57.60;28.60;96311.00;;;;4992556;28;20206;-80
2023/07/05 10:33:35;;;;;;;1.27;1.17;;;29.40;56.80;28.70;96309.00;;;;4985222;28;20276;-80
2023/07/05 10:36:06;;;;;;;2.90;1.65;;;29.40;56.60;28.70;96301.00;;;;4981650;28;20207;-80
2023/07/05 10:38:45;;;;;;;1.50;1.40;;;29.50;56.60;28.60;96307.00;;;;4982328;28;20278;-80
2023/07/05 10:41:25;;;;;;;1.40;1.30;;;29.50;55.90;28.60;96305.00;;;;4984818;28;20233;-80
2023/07/05 10:44:01;;;;;;;1.45;1.20;;;29.40;55.20;28.50;96312.00;;;;4990727;28;20202;-79
2023/07/05 10:46:30;;;;;;;2.15;1.20;;;29.30;55.20;28.50;96312.00;;;;4982320;28;20212;-79
2023/07/05 10:48:58;;;;;;;1.50;1.40;;;29.20;55.40;28.40;96308.00;;;;4985508;28;20246;-79
2023/07/05 10:51:31;;;;;;;1.05;1.00;;;29.10;55.30;28.30;96310.00;;;;4995589;28;20198;-79
2023/07/05 10:54:05;;;;;;;1.67;1.58;;;29.00;56.10;28.20;96306.00;;;;4990547;28;20291;-79
2023/07/05 10:56:36;;;;;;;1.48;1.30;;;28.80;55.00;28.10;96307.00;;;;4988177;28;20279;-80
2023/07/05 10:59:15;;;;;;;1.50;1.40;;;28.70;54.90;28.00;96316.00;;;;4989442;28;20596;-79
2023/07/05 11:01:56;;;;;;;1.60;1.40;;;28.60;54.80;27.90;96319.00;;;;4985947;28;20223;-80
2023/07/05 11:04:29;;;;;;;1.75;1.35;;;28.50;55.10;27.80;96314.00;;;;4985179;28;20210;-79
2023/07/05 11:07:06;;;;;;;1.75;1.50;;;28.40;55.40;27.70;96317.00;;;;4980789;28;20195;-80
2023/07/05 11:09:36;;;;;;;1.52;1.42;;;28.30;55.80;27.70;96322.00;;;;4992107;28;20202;-79
2023/07/05 11:12:10;;;;;;;1.85;1.67;;;28.20;56.20;27.70;96335.00;;;;4981895;28;20211;-79